sensor_id;sensor_type;location;lat;lon;timestamp;P1;durP1;ratioP1;P2;durP2;ratioP2
9745;SDS011;4912;50.836;12.958;2023-05-29T00:01:25;13.60;;;6.75;;
9745;SDS011;4912;50.836;12.958;2023-05-29T00:04:00;12.18;;;6.72;;
9745;SDS011;4912;50.836;12.958;2023-05-29T00:06:31;11.20;;;5.97;;
9745;SDS011;4912;50.836;12.958;2023-05-29T00:09:02;9.77;;;5.85;;
9745;SDS011;4912;50.836;12.958;2023-05-29T00:11:33;8.93;;;5.15;;
9745;SDS011;4912;50.836;12.958;2023-05-29T00:14:04;10.05;;;5.03;;
9745;SDS011;4912;50.836;12.958;2023-05-29T00:16:35;10.00;;;4.72;;
9745;SDS011;4912;50.836;12.958;2023-05-29T00:19:08;8.98;;;4.45;;
9745;SDS011;4912;50.836;12.958;2023-05-29T00:21:39;7.50;;;4.43;;
9745;SDS011;4912;50.836;12.958;2023-05-29T00:26:40;9.73;;;4.53;;
9745;SDS011;4912;50.836;12.958;2023-05-29T00:31:41;10.70;;;5.10;;
9745;SDS011;4912;50.836;12.958;2023-05-29T00:34:15;9.38;;;5.75;;
9745;SDS011;4912;50.836;12.958;2023-05-29T00:36:45;10.75;;;4.82;;
9745;SDS011;4912;50.836;12.958;2023-05-29T00:39:16;8.40;;;4.70;;
9745;SDS011;4912;50.836;12.958;2023-05-29T00:41:47;8.73;;;4.75;;
9745;SDS011;4912;50.836;12.958;2023-05-29T00:44:18;9.73;;;4.53;;
9745;SDS011;4912;50.836;12.958;2023-05-29T00:46:49;9.05;;;4.50;;
9745;SDS011;4912;50.836;12.958;2023-05-29T00:49:25;7.72;;;4.57;;
9745;SDS011;4912;50.836;12.958;2023-05-29T00:51:57;7.80;;;4.45;;
9745;SDS011;4912;50.836;12.958;2023-05-29T00:54:28;14.10;;;5.22;;
9745;SDS011;4912;50.836;12.958;2023-05-29T00:57:03;7.88;;;4.40;;
9745;SDS011;4912;50.836;12.958;2023-05-29T00:59:35;8.02;;;3.92;;
9745;SDS011;4912;50.836;12.958;2023-05-29T01:02:06;7.03;;;3.83;;
9745;SDS011;4912;50.836;12.958;2023-05-29T01:04:40;7.60;;;4.00;;
9745;SDS011;4912;50.836;12.958;2023-05-29T01:07:11;7.78;;;4.47;;
9745;SDS011;4912;50.836;12.958;2023-05-29T01:09:42;9.75;;;4.18;;
9745;SDS011;4912;50.836;12.958;2023-05-29T01:12:19;6.55;;;3.88;;
9745;SDS011;4912;50.836;12.958;2023-05-29T01:15:14;7.90;;;3.97;;
9745;SDS011;4912;50.836;12.958;2023-05-29T01:18:06;7.10;;;4.22;;
9745;SDS011;4912;50.836;12.958;2023-05-29T01:20:52;7.82;;;4.03;;
9745;SDS011;4912;50.836;12.958;2023-05-29T01:23:40;7.72;;;4.40;;
9745;SDS011;4912;50.836;12.958;2023-05-29T01:29:22;7.75;;;4.53;;
9745;SDS011;4912;50.836;12.958;2023-05-29T01:31:59;6.93;;;4.10;;
9745;SDS011;4912;50.836;12.958;2023-05-29T01:34:31;9.13;;;4.30;;
9745;SDS011;4912;50.836;12.958;2023-05-29T01:37:02;6.72;;;3.80;;
9745;SDS011;4912;50.836;12.958;2023-05-29T01:39:33;7.95;;;4.60;;
9745;SDS011;4912;50.836;12.958;2023-05-29T01:42:07;7.43;;;4.72;;
9745;SDS011;4912;50.836;12.958;2023-05-29T01:44:38;8.52;;;4.30;;
9745;SDS011;4912;50.836;12.958;2023-05-29T01:47:09;7.57;;;4.55;;
9745;SDS011;4912;50.836;12.958;2023-05-29T01:49:40;7.97;;;4.53;;
9745;SDS011;4912;50.836;12.958;2023-05-29T01:52:12;7.20;;;4.18;;
9745;SDS011;4912;50.836;12.958;2023-05-29T01:54:42;11.13;;;4.45;;
9745;SDS011;4912;50.836;12.958;2023-05-29T01:57:16;7.68;;;4.25;;
9745;SDS011;4912;50.836;12.958;2023-05-29T01:59:47;13.02;;;5.13;;
9745;SDS011;4912;50.836;12.958;2023-05-29T02:02:18;8.10;;;4.43;;
9745;SDS011;4912;50.836;12.958;2023-05-29T02:04:51;6.93;;;4.45;;
9745;SDS011;4912;50.836;12.958;2023-05-29T02:07:22;6.93;;;4.57;;
9745;SDS011;4912;50.836;12.958;2023-05-29T02:09:53;10.90;;;5.20;;
9745;SDS011;4912;50.836;12.958;2023-05-29T02:12:26;7.70;;;4.68;;
9745;SDS011;4912;50.836;12.958;2023-05-29T02:14:57;7.90;;;4.30;;
9745;SDS011;4912;50.836;12.958;2023-05-29T02:17:28;8.07;;;4.53;;
9745;SDS011;4912;50.836;12.958;2023-05-29T02:20:00;8.50;;;4.40;;
9745;SDS011;4912;50.836;12.958;2023-05-29T02:22:31;12.23;;;4.57;;
9745;SDS011;4912;50.836;12.958;2023-05-29T02:25:02;7.10;;;4.30;;
9745;SDS011;4912;50.836;12.958;2023-05-29T02:27:36;6.95;;;4.25;;
9745;SDS011;4912;50.836;12.958;2023-05-29T02:30:07;8.00;;;4.43;;
9745;SDS011;4912;50.836;12.958;2023-05-29T02:32:40;11.30;;;5.63;;
9745;SDS011;4912;50.836;12.958;2023-05-29T02:35:10;11.85;;;5.30;;
9745;SDS011;4912;50.836;12.958;2023-05-29T02:37:42;13.38;;;6.22;;
9745;SDS011;4912;50.836;12.958;2023-05-29T02:40:14;13.50;;;7.20;;
9745;SDS011;4912;50.836;12.958;2023-05-29T02:42:48;13.88;;;7.60;;
9745;SDS011;4912;50.836;12.958;2023-05-29T02:45:19;18.42;;;9.02;;
9745;SDS011;4912;50.836;12.958;2023-05-29T02:47:50;17.38;;;8.85;;
9745;SDS011;4912;50.836;12.958;2023-05-29T02:50:20;18.50;;;8.98;;
9745;SDS011;4912;50.836;12.958;2023-05-29T02:52:51;11.38;;;7.70;;
9745;SDS011;4912;50.836;12.958;2023-05-29T02:55:22;11.23;;;6.90;;
9745;SDS011;4912;50.836;12.958;2023-05-29T02:57:55;13.90;;;6.97;;
9745;SDS011;4912;50.836;12.958;2023-05-29T03:00:26;12.35;;;7.00;;
9745;SDS011;4912;50.836;12.958;2023-05-29T03:05:28;9.10;;;5.37;;
9745;SDS011;4912;50.836;12.958;2023-05-29T03:07:58;10.50;;;4.72;;
9745;SDS011;4912;50.836;12.958;2023-05-29T03:10:29;11.23;;;4.80;;
9745;SDS011;4912;50.836;12.958;2023-05-29T03:13:02;9.10;;;4.88;;
9745;SDS011;4912;50.836;12.958;2023-05-29T03:15:36;9.45;;;5.28;;
9745;SDS011;4912;50.836;12.958;2023-05-29T03:18:07;8.43;;;4.90;;
9745;SDS011;4912;50.836;12.958;2023-05-29T03:20:38;8.25;;;5.10;;
9745;SDS011;4912;50.836;12.958;2023-05-29T03:23:09;10.60;;;5.03;;
9745;SDS011;4912;50.836;12.958;2023-05-29T03:25:39;10.40;;;5.50;;
9745;SDS011;4912;50.836;12.958;2023-05-29T03:28:13;11.00;;;5.10;;
9745;SDS011;4912;50.836;12.958;2023-05-29T03:30:44;11.57;;;4.95;;
9745;SDS011;4912;50.836;12.958;2023-05-29T03:33:17;10.13;;;4.75;;
9745;SDS011;4912;50.836;12.958;2023-05-29T03:36:10;8.32;;;4.80;;
9745;SDS011;4912;50.836;12.958;2023-05-29T03:38:44;7.72;;;5.03;;
9745;SDS011;4912;50.836;12.958;2023-05-29T03:41:14;8.07;;;4.57;;
9745;SDS011;4912;50.836;12.958;2023-05-29T03:43:47;9.90;;;4.70;;
9745;SDS011;4912;50.836;12.958;2023-05-29T03:46:20;10.70;;;4.80;;
9745;SDS011;4912;50.836;12.958;2023-05-29T03:48:51;8.93;;;4.38;;
9745;SDS011;4912;50.836;12.958;2023-05-29T03:51:21;9.80;;;4.65;;
9745;SDS011;4912;50.836;12.958;2023-05-29T03:53:54;10.20;;;5.63;;
9745;SDS011;4912;50.836;12.958;2023-05-29T03:56:25;9.55;;;4.97;;
9745;SDS011;4912;50.836;12.958;2023-05-29T03:58:58;9.77;;;4.88;;
9745;SDS011;4912;50.836;12.958;2023-05-29T04:01:30;8.07;;;4.68;;
9745;SDS011;4912;50.836;12.958;2023-05-29T04:04:01;8.30;;;4.55;;
9745;SDS011;4912;50.836;12.958;2023-05-29T04:06:32;8.13;;;4.90;;
9745;SDS011;4912;50.836;12.958;2023-05-29T04:09:05;10.35;;;5.25;;
9745;SDS011;4912;50.836;12.958;2023-05-29T04:11:36;10.77;;;5.07;;
9745;SDS011;4912;50.836;12.958;2023-05-29T04:14:12;7.65;;;4.95;;
9745;SDS011;4912;50.836;12.958;2023-05-29T04:16:46;12.68;;;5.65;;
9745;SDS011;4912;50.836;12.958;2023-05-29T04:19:16;8.45;;;4.63;;
9745;SDS011;4912;50.836;12.958;2023-05-29T04:21:47;8.88;;;5.38;;
9745;SDS011;4912;50.836;12.958;2023-05-29T04:26:49;9.15;;;5.30;;
9745;SDS011;4912;50.836;12.958;2023-05-29T04:29:22;8.98;;;4.97;;
9745;SDS011;4912;50.836;12.958;2023-05-29T04:31:53;8.77;;;5.18;;
9745;SDS011;4912;50.836;12.958;2023-05-29T04:34:25;10.85;;;4.72;;
9745;SDS011;4912;50.836;12.958;2023-05-29T04:36:57;8.43;;;4.95;;
9745;SDS011;4912;50.836;12.958;2023-05-29T04:39:29;10.90;;;5.05;;
9745;SDS011;4912;50.836;12.958;2023-05-29T04:42:01;9.40;;;5.05;;
9745;SDS011;4912;50.836;12.958;2023-05-29T04:44:36;9.40;;;5.63;;
9745;SDS011;4912;50.836;12.958;2023-05-29T04:47:07;9.13;;;4.63;;
9745;SDS011;4912;50.836;12.958;2023-05-29T04:49:39;8.85;;;4.78;;
9745;SDS011;4912;50.836;12.958;2023-05-29T04:52:10;9.55;;;5.03;;
9745;SDS011;4912;50.836;12.958;2023-05-29T04:54:40;11.10;;;5.25;;
9745;SDS011;4912;50.836;12.958;2023-05-29T04:57:12;7.47;;;4.78;;
9745;SDS011;4912;50.836;12.958;2023-05-29T04:59:45;9.15;;;5.18;;
9745;SDS011;4912;50.836;12.958;2023-05-29T05:02:16;7.82;;;4.50;;
9745;SDS011;4912;50.836;12.958;2023-05-29T05:04:47;8.68;;;5.25;;
9745;SDS011;4912;50.836;12.958;2023-05-29T05:07:18;10.95;;;5.57;;
9745;SDS011;4912;50.836;12.958;2023-05-29T05:12:23;8.90;;;4.85;;
9745;SDS011;4912;50.836;12.958;2023-05-29T05:14:56;9.80;;;5.15;;
9745;SDS011;4912;50.836;12.958;2023-05-29T05:17:28;7.88;;;5.13;;
9745;SDS011;4912;50.836;12.958;2023-05-29T05:19:59;8.82;;;5.00;;
9745;SDS011;4912;50.836;12.958;2023-05-29T05:22:32;9.20;;;5.22;;
9745;SDS011;4912;50.836;12.958;2023-05-29T05:25:04;9.13;;;4.75;;
9745;SDS011;4912;50.836;12.958;2023-05-29T05:27:36;12.18;;;4.80;;
9745;SDS011;4912;50.836;12.958;2023-05-29T05:30:10;10.27;;;5.18;;
9745;SDS011;4912;50.836;12.958;2023-05-29T05:32:43;10.40;;;4.75;;
9745;SDS011;4912;50.836;12.958;2023-05-29T05:35:14;8.20;;;4.20;;
9745;SDS011;4912;50.836;12.958;2023-05-29T05:37:46;8.88;;;4.68;;
9745;SDS011;4912;50.836;12.958;2023-05-29T05:40:17;8.52;;;4.82;;
9745;SDS011;4912;50.836;12.958;2023-05-29T05:42:54;8.52;;;5.07;;
9745;SDS011;4912;50.836;12.958;2023-05-29T05:45:54;7.60;;;4.80;;
9745;SDS011;4912;50.836;12.958;2023-05-29T05:48:24;9.70;;;4.65;;
9745;SDS011;4912;50.836;12.958;2023-05-29T05:53:26;12.65;;;6.25;;
9745;SDS011;4912;50.836;12.958;2023-05-29T05:55:56;9.32;;;5.00;;
9745;SDS011;4912;50.836;12.958;2023-05-29T06:01:00;8.50;;;4.20;;
9745;SDS011;4912;50.836;12.958;2023-05-29T06:03:31;8.77;;;4.25;;
9745;SDS011;4912;50.836;12.958;2023-05-29T06:06:06;7.82;;;4.00;;
9745;SDS011;4912;50.836;12.958;2023-05-29T06:08:39;9.43;;;4.40;;
9745;SDS011;4912;50.836;12.958;2023-05-29T06:11:12;8.40;;;5.00;;
9745;SDS011;4912;50.836;12.958;2023-05-29T06:13:44;10.43;;;5.05;;
9745;SDS011;4912;50.836;12.958;2023-05-29T06:16:23;8.45;;;4.55;;
9745;SDS011;4912;50.836;12.958;2023-05-29T06:18:54;8.50;;;4.60;;
9745;SDS011;4912;50.836;12.958;2023-05-29T06:21:26;7.40;;;4.65;;
9745;SDS011;4912;50.836;12.958;2023-05-29T06:23:56;7.30;;;4.45;;
9745;SDS011;4912;50.836;12.958;2023-05-29T06:26:27;7.40;;;4.80;;
9745;SDS011;4912;50.836;12.958;2023-05-29T06:28:58;8.50;;;4.30;;
9745;SDS011;4912;50.836;12.958;2023-05-29T06:31:31;8.82;;;4.40;;
9745;SDS011;4912;50.836;12.958;2023-05-29T06:34:02;9.07;;;4.80;;
9745;SDS011;4912;50.836;12.958;2023-05-29T06:36:32;8.18;;;4.05;;
9745;SDS011;4912;50.836;12.958;2023-05-29T06:39:04;7.03;;;4.13;;
9745;SDS011;4912;50.836;12.958;2023-05-29T06:41:35;10.00;;;4.25;;
9745;SDS011;4912;50.836;12.958;2023-05-29T06:44:06;11.00;;;4.35;;
9745;SDS011;4912;50.836;12.958;2023-05-29T06:46:41;7.03;;;4.03;;
9745;SDS011;4912;50.836;12.958;2023-05-29T06:49:12;6.97;;;4.13;;
9745;SDS011;4912;50.836;12.958;2023-05-29T06:51:43;6.90;;;4.03;;
9745;SDS011;4912;50.836;12.958;2023-05-29T06:54:37;9.60;;;4.13;;
9745;SDS011;4912;50.836;12.958;2023-05-29T06:57:09;6.15;;;3.80;;
9745;SDS011;4912;50.836;12.958;2023-05-29T06:59:41;7.78;;;3.85;;
9745;SDS011;4912;50.836;12.958;2023-05-29T07:02:14;8.70;;;5.22;;
9745;SDS011;4912;50.836;12.958;2023-05-29T07:04:49;16.00;;;9.55;;
9745;SDS011;4912;50.836;12.958;2023-05-29T07:07:20;8.75;;;4.90;;
9745;SDS011;4912;50.836;12.958;2023-05-29T07:09:50;9.57;;;4.32;;
9745;SDS011;4912;50.836;12.958;2023-05-29T07:12:21;5.65;;;3.53;;
9745;SDS011;4912;50.836;12.958;2023-05-29T07:14:52;6.85;;;3.63;;
9745;SDS011;4912;50.836;12.958;2023-05-29T07:17:26;13.25;;;4.10;;
9745;SDS011;4912;50.836;12.958;2023-05-29T07:20:08;7.68;;;3.90;;
9745;SDS011;4912;50.836;12.958;2023-05-29T07:22:41;5.32;;;3.60;;
9745;SDS011;4912;50.836;12.958;2023-05-29T07:25:12;6.63;;;3.47;;
9745;SDS011;4912;50.836;12.958;2023-05-29T07:30:13;9.20;;;3.50;;
9745;SDS011;4912;50.836;12.958;2023-05-29T07:32:48;6.55;;;3.10;;
9745;SDS011;4912;50.836;12.958;2023-05-29T07:35:19;4.88;;;2.70;;
9745;SDS011;4912;50.836;12.958;2023-05-29T07:37:50;6.35;;;2.60;;
9745;SDS011;4912;50.836;12.958;2023-05-29T07:40:22;6.90;;;3.10;;
9745;SDS011;4912;50.836;12.958;2023-05-29T07:43:09;15.10;;;2.85;;
9745;SDS011;4912;50.836;12.958;2023-05-29T07:45:54;4.63;;;2.50;;
9745;SDS011;4912;50.836;12.958;2023-05-29T07:48:27;7.70;;;2.63;;
9745;SDS011;4912;50.836;12.958;2023-05-29T07:50:59;5.47;;;2.78;;
9745;SDS011;4912;50.836;12.958;2023-05-29T07:53:34;7.30;;;2.97;;
9745;SDS011;4912;50.836;12.958;2023-05-29T07:58:35;5.25;;;2.65;;
9745;SDS011;4912;50.836;12.958;2023-05-29T08:01:07;5.38;;;2.72;;
9745;SDS011;4912;50.836;12.958;2023-05-29T08:06:19;7.50;;;2.70;;
9745;SDS011;4912;50.836;12.958;2023-05-29T08:08:50;9.85;;;2.70;;
9745;SDS011;4912;50.836;12.958;2023-05-29T08:11:21;5.53;;;2.70;;
9745;SDS011;4912;50.836;12.958;2023-05-29T08:13:52;9.73;;;2.65;;
9745;SDS011;4912;50.836;12.958;2023-05-29T08:16:23;5.57;;;2.60;;
9745;SDS011;4912;50.836;12.958;2023-05-29T08:18:57;6.70;;;2.50;;
9745;SDS011;4912;50.836;12.958;2023-05-29T08:21:27;7.07;;;3.00;;
9745;SDS011;4912;50.836;12.958;2023-05-29T08:23:58;5.13;;;2.53;;
9745;SDS011;4912;50.836;12.958;2023-05-29T08:26:31;8.10;;;2.90;;
9745;SDS011;4912;50.836;12.958;2023-05-29T08:31:32;4.65;;;2.88;;
9745;SDS011;4912;50.836;12.958;2023-05-29T08:34:06;5.38;;;3.13;;
9745;SDS011;4912;50.836;12.958;2023-05-29T08:36:37;5.78;;;2.80;;
9745;SDS011;4912;50.836;12.958;2023-05-29T08:39:08;3.42;;;2.30;;
9745;SDS011;4912;50.836;12.958;2023-05-29T08:41:41;5.43;;;2.38;;
9745;SDS011;4912;50.836;12.958;2023-05-29T08:44:26;3.90;;;2.60;;
9745;SDS011;4912;50.836;12.958;2023-05-29T08:47:01;5.50;;;2.75;;
9745;SDS011;4912;50.836;12.958;2023-05-29T08:49:37;7.18;;;2.83;;
9745;SDS011;4912;50.836;12.958;2023-05-29T08:52:13;7.18;;;2.85;;
9745;SDS011;4912;50.836;12.958;2023-05-29T08:54:47;4.90;;;2.88;;
9745;SDS011;4912;50.836;12.958;2023-05-29T08:57:18;8.15;;;3.00;;
9745;SDS011;4912;50.836;12.958;2023-05-29T08:59:51;4.55;;;2.50;;
9745;SDS011;4912;50.836;12.958;2023-05-29T09:02:22;7.90;;;2.78;;
9745;SDS011;4912;50.836;12.958;2023-05-29T09:04:56;8.40;;;4.22;;
9745;SDS011;4912;50.836;12.958;2023-05-29T09:07:27;4.18;;;2.80;;
9745;SDS011;4912;50.836;12.958;2023-05-29T09:09:57;6.97;;;3.78;;
9745;SDS011;4912;50.836;12.958;2023-05-29T09:12:29;7.25;;;3.03;;
9745;SDS011;4912;50.836;12.958;2023-05-29T09:15:00;5.57;;;2.75;;
9745;SDS011;4912;50.836;12.958;2023-05-29T09:17:32;6.28;;;2.63;;
9745;SDS011;4912;50.836;12.958;2023-05-29T09:20:06;7.13;;;3.05;;
9745;SDS011;4912;50.836;12.958;2023-05-29T09:22:46;6.82;;;3.05;;
9745;SDS011;4912;50.836;12.958;2023-05-29T09:25:24;8.10;;;3.03;;
9745;SDS011;4912;50.836;12.958;2023-05-29T09:27:58;4.63;;;2.78;;
9745;SDS011;4912;50.836;12.958;2023-05-29T09:30:31;7.60;;;3.40;;
9745;SDS011;4912;50.836;12.958;2023-05-29T09:33:06;6.18;;;3.13;;
9745;SDS011;4912;50.836;12.958;2023-05-29T09:35:41;5.93;;;2.90;;
9745;SDS011;4912;50.836;12.958;2023-05-29T09:38:14;5.85;;;3.08;;
9745;SDS011;4912;50.836;12.958;2023-05-29T09:40:49;7.80;;;3.00;;
9745;SDS011;4912;50.836;12.958;2023-05-29T09:43:22;11.52;;;3.00;;
9745;SDS011;4912;50.836;12.958;2023-05-29T09:45:53;5.15;;;2.90;;
9745;SDS011;4912;50.836;12.958;2023-05-29T09:48:24;5.15;;;2.75;;
9745;SDS011;4912;50.836;12.958;2023-05-29T09:50:58;6.40;;;3.20;;
9745;SDS011;4912;50.836;12.958;2023-05-29T09:53:32;4.43;;;2.78;;
9745;SDS011;4912;50.836;12.958;2023-05-29T09:56:03;6.35;;;2.83;;
9745;SDS011;4912;50.836;12.958;2023-05-29T09:58:35;8.20;;;2.95;;
9745;SDS011;4912;50.836;12.958;2023-05-29T10:01:12;6.20;;;2.97;;
9745;SDS011;4912;50.836;12.958;2023-05-29T10:03:43;4.55;;;2.97;;
9745;SDS011;4912;50.836;12.958;2023-05-29T10:06:18;7.47;;;3.20;;
9745;SDS011;4912;50.836;12.958;2023-05-29T10:08:50;4.20;;;2.45;;
9745;SDS011;4912;50.836;12.958;2023-05-29T10:11:24;5.43;;;3.28;;
9745;SDS011;4912;50.836;12.958;2023-05-29T10:13:56;8.23;;;2.97;;
9745;SDS011;4912;50.836;12.958;2023-05-29T10:16:27;5.45;;;3.35;;
9745;SDS011;4912;50.836;12.958;2023-05-29T10:19:02;6.63;;;3.13;;
9745;SDS011;4912;50.836;12.958;2023-05-29T10:21:40;5.05;;;3.10;;
9745;SDS011;4912;50.836;12.958;2023-05-29T10:24:11;6.28;;;2.55;;
9745;SDS011;4912;50.836;12.958;2023-05-29T10:26:43;8.80;;;2.90;;
9745;SDS011;4912;50.836;12.958;2023-05-29T10:29:20;4.63;;;2.85;;
9745;SDS011;4912;50.836;12.958;2023-05-29T10:32:11;6.70;;;2.92;;
9745;SDS011;4912;50.836;12.958;2023-05-29T10:34:55;5.35;;;2.80;;
9745;SDS011;4912;50.836;12.958;2023-05-29T10:37:39;5.50;;;3.10;;
9745;SDS011;4912;50.836;12.958;2023-05-29T10:40:13;6.63;;;3.05;;
9745;SDS011;4912;50.836;12.958;2023-05-29T10:42:45;6.47;;;3.00;;
9745;SDS011;4912;50.836;12.958;2023-05-29T10:48:36;4.90;;;2.70;;
9745;SDS011;4912;50.836;12.958;2023-05-29T10:51:10;7.03;;;2.80;;
9745;SDS011;4912;50.836;12.958;2023-05-29T10:53:58;9.27;;;2.83;;
9745;SDS011;4912;50.836;12.958;2023-05-29T10:56:29;4.97;;;2.47;;
9745;SDS011;4912;50.836;12.958;2023-05-29T10:59:00;10.57;;;3.28;;
9745;SDS011;4912;50.836;12.958;2023-05-29T11:01:31;5.20;;;3.10;;
9745;SDS011;4912;50.836;12.958;2023-05-29T11:06:58;5.53;;;3.05;;
9745;SDS011;4912;50.836;12.958;2023-05-29T11:09:36;5.15;;;2.33;;
9745;SDS011;4912;50.836;12.958;2023-05-29T11:12:11;4.88;;;2.55;;
9745;SDS011;4912;50.836;12.958;2023-05-29T11:14:54;8.98;;;2.78;;
9745;SDS011;4912;50.836;12.958;2023-05-29T11:17:30;5.82;;;2.58;;
9745;SDS011;4912;50.836;12.958;2023-05-29T11:20:20;5.20;;;2.90;;
9745;SDS011;4912;50.836;12.958;2023-05-29T11:23:02;4.93;;;2.67;;
9745;SDS011;4912;50.836;12.958;2023-05-29T11:25:38;5.15;;;2.80;;
9745;SDS011;4912;50.836;12.958;2023-05-29T11:28:10;6.80;;;3.00;;
9745;SDS011;4912;50.836;12.958;2023-05-29T11:30:45;5.60;;;2.70;;
9745;SDS011;4912;50.836;12.958;2023-05-29T11:33:19;5.22;;;2.65;;
9745;SDS011;4912;50.836;12.958;2023-05-29T11:35:56;8.80;;;3.20;;
9745;SDS011;4912;50.836;12.958;2023-05-29T11:38:28;5.38;;;3.00;;
9745;SDS011;4912;50.836;12.958;2023-05-29T11:41:02;6.90;;;2.95;;
9745;SDS011;4912;50.836;12.958;2023-05-29T11:43:33;4.32;;;2.97;;
9745;SDS011;4912;50.836;12.958;2023-05-29T11:46:13;7.03;;;3.10;;
9745;SDS011;4912;50.836;12.958;2023-05-29T11:48:48;6.55;;;3.00;;
9745;SDS011;4912;50.836;12.958;2023-05-29T11:51:18;6.15;;;3.03;;
9745;SDS011;4912;50.836;12.958;2023-05-29T11:53:49;5.95;;;2.75;;
9745;SDS011;4912;50.836;12.958;2023-05-29T11:56:28;6.13;;;4.00;;
9745;SDS011;4912;50.836;12.958;2023-05-29T11:58:59;6.40;;;3.30;;
9745;SDS011;4912;50.836;12.958;2023-05-29T12:01:34;5.88;;;3.10;;
9745;SDS011;4912;50.836;12.958;2023-05-29T12:04:13;5.05;;;2.80;;
9745;SDS011;4912;50.836;12.958;2023-05-29T12:06:45;4.90;;;3.20;;
9745;SDS011;4912;50.836;12.958;2023-05-29T12:09:25;4.68;;;3.17;;
9745;SDS011;4912;50.836;12.958;2023-05-29T12:12:03;4.35;;;2.90;;
9745;SDS011;4912;50.836;12.958;2023-05-29T12:14:35;4.47;;;2.90;;
9745;SDS011;4912;50.836;12.958;2023-05-29T12:17:05;5.53;;;2.70;;
9745;SDS011;4912;50.836;12.958;2023-05-29T12:19:36;4.78;;;3.15;;
9745;SDS011;4912;50.836;12.958;2023-05-29T12:22:07;7.85;;;3.10;;
9745;SDS011;4912;50.836;12.958;2023-05-29T12:24:37;6.85;;;3.08;;
9745;SDS011;4912;50.836;12.958;2023-05-29T12:27:12;6.03;;;3.00;;
9745;SDS011;4912;50.836;12.958;2023-05-29T12:29:43;4.80;;;3.20;;
9745;SDS011;4912;50.836;12.958;2023-05-29T12:32:13;6.28;;;3.17;;
9745;SDS011;4912;50.836;12.958;2023-05-29T12:34:48;6.70;;;3.08;;
9745;SDS011;4912;50.836;12.958;2023-05-29T12:37:20;4.32;;;2.33;;
9745;SDS011;4912;50.836;12.958;2023-05-29T12:42:46;4.93;;;3.10;;
9745;SDS011;4912;50.836;12.958;2023-05-29T12:45:17;6.78;;;3.22;;
9745;SDS011;4912;50.836;12.958;2023-05-29T12:47:51;5.18;;;3.20;;
9745;SDS011;4912;50.836;12.958;2023-05-29T12:50:23;4.43;;;2.70;;
9745;SDS011;4912;50.836;12.958;2023-05-29T12:52:55;4.85;;;3.00;;
9745;SDS011;4912;50.836;12.958;2023-05-29T12:55:28;7.50;;;3.00;;
9745;SDS011;4912;50.836;12.958;2023-05-29T12:58:03;4.97;;;2.90;;
9745;SDS011;4912;50.836;12.958;2023-05-29T13:00:34;4.10;;;2.83;;
9745;SDS011;4912;50.836;12.958;2023-05-29T13:03:06;5.32;;;3.13;;
9745;SDS011;4912;50.836;12.958;2023-05-29T13:05:37;4.95;;;3.17;;
9745;SDS011;4912;50.836;12.958;2023-05-29T13:08:08;7.15;;;4.30;;
9745;SDS011;4912;50.836;12.958;2023-05-29T13:10:39;7.47;;;4.00;;
9745;SDS011;4912;50.836;12.958;2023-05-29T13:13:12;6.75;;;3.03;;
9745;SDS011;4912;50.836;12.958;2023-05-29T13:15:42;7.13;;;3.10;;
9745;SDS011;4912;50.836;12.958;2023-05-29T13:18:13;5.15;;;3.10;;
9745;SDS011;4912;50.836;12.958;2023-05-29T13:20:43;6.93;;;3.83;;
9745;SDS011;4912;50.836;12.958;2023-05-29T13:23:14;4.25;;;3.50;;
9745;SDS011;4912;50.836;12.958;2023-05-29T13:25:45;5.47;;;3.38;;
9745;SDS011;4912;50.836;12.958;2023-05-29T13:28:18;5.45;;;3.03;;
9745;SDS011;4912;50.836;12.958;2023-05-29T13:30:50;4.65;;;3.45;;
9745;SDS011;4912;50.836;12.958;2023-05-29T13:33:21;8.43;;;3.50;;
9745;SDS011;4912;50.836;12.958;2023-05-29T13:35:52;4.88;;;3.33;;
9745;SDS011;4912;50.836;12.958;2023-05-29T13:38:24;5.78;;;3.20;;
9745;SDS011;4912;50.836;12.958;2023-05-29T13:40:54;7.13;;;3.20;;
9745;SDS011;4912;50.836;12.958;2023-05-29T13:43:27;7.03;;;3.45;;
9745;SDS011;4912;50.836;12.958;2023-05-29T13:46:10;4.88;;;3.00;;
9745;SDS011;4912;50.836;12.958;2023-05-29T13:48:42;5.50;;;3.13;;
9745;SDS011;4912;50.836;12.958;2023-05-29T13:51:12;4.53;;;2.55;;
9745;SDS011;4912;50.836;12.958;2023-05-29T13:53:43;5.80;;;2.88;;
9745;SDS011;4912;50.836;12.958;2023-05-29T13:56:13;5.18;;;2.85;;
9745;SDS011;4912;50.836;12.958;2023-05-29T13:58:46;5.13;;;2.85;;
9745;SDS011;4912;50.836;12.958;2023-05-29T14:01:17;4.57;;;2.65;;
9745;SDS011;4912;50.836;12.958;2023-05-29T14:03:51;6.50;;;3.05;;
9745;SDS011;4912;50.836;12.958;2023-05-29T14:06:21;6.50;;;3.05;;
9745;SDS011;4912;50.836;12.958;2023-05-29T14:08:52;6.10;;;2.80;;
9745;SDS011;4912;50.836;12.958;2023-05-29T14:11:23;4.90;;;3.28;;
9745;SDS011;4912;50.836;12.958;2023-05-29T14:13:56;4.28;;;2.80;;
9745;SDS011;4912;50.836;12.958;2023-05-29T14:16:27;5.93;;;2.80;;
9745;SDS011;4912;50.836;12.958;2023-05-29T14:18:58;6.65;;;3.22;;
9745;SDS011;4912;50.836;12.958;2023-05-29T14:21:29;5.93;;;3.40;;
9745;SDS011;4912;50.836;12.958;2023-05-29T14:23:59;7.90;;;3.42;;
9745;SDS011;4912;50.836;12.958;2023-05-29T14:26:30;8.68;;;5.05;;
9745;SDS011;4912;50.836;12.958;2023-05-29T14:29:03;5.38;;;3.33;;
9745;SDS011;4912;50.836;12.958;2023-05-29T14:31:40;5.70;;;3.95;;
9745;SDS011;4912;50.836;12.958;2023-05-29T14:34:12;6.05;;;3.30;;
9745;SDS011;4912;50.836;12.958;2023-05-29T14:36:42;4.93;;;2.92;;
9745;SDS011;4912;50.836;12.958;2023-05-29T14:39:13;7.13;;;3.45;;
9745;SDS011;4912;50.836;12.958;2023-05-29T14:41:44;6.53;;;3.00;;
9745;SDS011;4912;50.836;12.958;2023-05-29T14:44:17;4.57;;;2.65;;
9745;SDS011;4912;50.836;12.958;2023-05-29T14:46:48;6.18;;;3.15;;
9745;SDS011;4912;50.836;12.958;2023-05-29T14:49:18;6.25;;;3.20;;
9745;SDS011;4912;50.836;12.958;2023-05-29T14:51:50;7.20;;;3.28;;
9745;SDS011;4912;50.836;12.958;2023-05-29T14:54:20;9.65;;;7.05;;
9745;SDS011;4912;50.836;12.958;2023-05-29T14:56:51;6.45;;;4.25;;
9745;SDS011;4912;50.836;12.958;2023-05-29T14:59:25;5.35;;;3.10;;
9745;SDS011;4912;50.836;12.958;2023-05-29T15:01:55;6.05;;;3.35;;
9745;SDS011;4912;50.836;12.958;2023-05-29T15:04:27;8.65;;;2.95;;
9745;SDS011;4912;50.836;12.958;2023-05-29T15:06:57;8.13;;;3.25;;
9745;SDS011;4912;50.836;12.958;2023-05-29T15:09:32;6.80;;;3.13;;
9745;SDS011;4912;50.836;12.958;2023-05-29T15:12:03;4.65;;;2.75;;
9745;SDS011;4912;50.836;12.958;2023-05-29T15:14:37;5.93;;;3.00;;
9745;SDS011;4912;50.836;12.958;2023-05-29T15:17:07;5.57;;;2.90;;
9745;SDS011;4912;50.836;12.958;2023-05-29T15:19:38;6.65;;;3.35;;
9745;SDS011;4912;50.836;12.958;2023-05-29T15:22:09;7.07;;;3.35;;
9745;SDS011;4912;50.836;12.958;2023-05-29T15:24:39;6.55;;;3.70;;
9745;SDS011;4912;50.836;12.958;2023-05-29T15:27:10;4.13;;;2.65;;
9745;SDS011;4912;50.836;12.958;2023-05-29T15:29:43;5.90;;;3.00;;
9745;SDS011;4912;50.836;12.958;2023-05-29T15:32:13;5.50;;;3.30;;
9745;SDS011;4912;50.836;12.958;2023-05-29T15:34:45;6.35;;;3.05;;
9745;SDS011;4912;50.836;12.958;2023-05-29T15:37:15;6.25;;;3.55;;
9745;SDS011;4912;50.836;12.958;2023-05-29T15:39:46;5.35;;;3.03;;
9745;SDS011;4912;50.836;12.958;2023-05-29T15:42:17;6.13;;;3.20;;
9745;SDS011;4912;50.836;12.958;2023-05-29T15:44:50;6.05;;;3.10;;
9745;SDS011;4912;50.836;12.958;2023-05-29T15:47:21;6.32;;;3.10;;
9745;SDS011;4912;50.836;12.958;2023-05-29T15:49:51;8.32;;;3.45;;
9745;SDS011;4912;50.836;12.958;2023-05-29T15:52:22;11.73;;;7.93;;
9745;SDS011;4912;50.836;12.958;2023-05-29T15:54:54;11.20;;;6.28;;
9745;SDS011;4912;50.836;12.958;2023-05-29T15:57:28;10.82;;;6.60;;
9745;SDS011;4912;50.836;12.958;2023-05-29T16:00:01;9.23;;;4.70;;
9745;SDS011;4912;50.836;12.958;2023-05-29T16:02:35;5.13;;;3.00;;
9745;SDS011;4912;50.836;12.958;2023-05-29T16:05:06;7.95;;;3.55;;
9745;SDS011;4912;50.836;12.958;2023-05-29T16:07:38;6.38;;;3.50;;
9745;SDS011;4912;50.836;12.958;2023-05-29T16:10:14;8.10;;;2.88;;
9745;SDS011;4912;50.836;12.958;2023-05-29T16:12:46;6.18;;;3.05;;
9745;SDS011;4912;50.836;12.958;2023-05-29T16:15:20;6.82;;;3.70;;